KARV

Lakeland / Noble F Lee Memorial Field Airport

Minocqua-Woodruff, Wisconsin, USA
METAR KARV 261315Z AUTO 00000KT 10SM CLR 22/18 A2976 RMK AO2 T02220175
Observed Flight Rules
May-26 @ 13:15 UTC (11 minutes ago) Visual Flight Rules
Visibility Clouds
10 miles
  • Clear skies
Temperatures Readings
Current 22°C / 72°F
Dewpoint 18°C / 64°F
Humidity 78%
Altimeter 29.76" Hg
Pressure 1008 hPa
Elevation 496
METAR KARV 261315Z AUTO 00000KT 10SM CLR 22/18 A2976 RMK AO2 T02220175
Observed Flight Rules
May-26 @ 13:15 UTC
(11 minutes ago)
VFR
Clouds
  • Clear skies
Temperature Dewpoint
22°C / 72°F 18°C / 64°F
Humidity Altimeter Pressure
78% 29.76" Hg 1008 hPa